Time;durP1;ratioP1;P1;durP2;ratioP2;P2;SDS_P1;SDS_P2;PMS_P1;PMS_P2;Temp;Humidity;BMP_temperature;BMP_pressure;BME280_temperature;BME280_humidity;BME280_pressure;Samples;Min_cycle;Max_cycle;Signal;HPM_P1;HPM_P2
2023/01/02 00:01:14;;;;;;;4.30;3.50;;;16.30;51.60;;;;;;5032277;28;20205;-57
2023/01/02 00:03:39;;;;;;;3.63;2.87;;;16.50;51.50;;;;;;5032831;28;20200;-57
2023/01/02 00:06:06;;;;;;;4.43;2.80;;;16.60;51.10;;;;;;5032613;28;20195;-57
2023/01/02 00:08:32;;;;;;;4.10;3.40;;;16.70;50.90;;;;;;5032514;28;20276;-57
2023/01/02 00:10:57;;;;;;;6.00;4.10;;;16.80;51.20;;;;;;5032476;28;20984;-58
2023/01/02 00:13:23;;;;;;;3.60;3.30;;;16.80;51.60;;;;;;5030511;28;20207;-57
2023/01/02 00:15:48;;;;;;;3.30;3.00;;;16.80;51.50;;;;;;5032468;28;20283;-57
2023/01/02 00:18:14;;;;;;;4.43;4.03;;;16.70;50.10;;;;;;5032321;28;20193;-57
2023/01/02 00:20:40;;;;;;;5.30;3.33;;;16.80;50.90;;;;;;5032495;28;20189;-57
2023/01/02 00:23:06;;;;;;;4.83;3.70;;;16.70;50.90;;;;;;5031696;28;20236;-57
2023/01/02 00:25:33;;;;;;;4.37;3.03;;;16.50;51.60;;;;;;5032264;28;20290;-58
2023/01/02 00:28:00;;;;;;;3.53;2.80;;;16.70;51.60;;;;;;5032078;28;20547;-58
2023/01/02 00:30:26;;;;;;;6.57;3.73;;;16.80;51.20;;;;;;5032204;28;20424;-57
2023/01/02 00:32:51;;;;;;;4.73;3.60;;;16.90;50.80;;;;;;5031880;28;20438;-57
2023/01/02 00:35:17;;;;;;;7.90;3.80;;;17.00;50.70;;;;;;5031986;28;20196;-57
2023/01/02 00:37:43;;;;;;;4.13;3.33;;;16.80;50.70;;;;;;5032075;28;20200;-57
2023/01/02 00:40:12;;;;;;;4.50;3.37;;;16.70;50.90;;;;;;5030526;28;20587;-58
2023/01/02 00:42:41;;;;;;;5.80;4.40;;;16.70;51.40;;;;;;5031349;28;20526;-58
2023/01/02 00:45:08;;;;;;;5.40;3.50;;;16.90;51.50;;;;;;5031805;28;20488;-58
2023/01/02 00:47:34;;;;;;;4.30;3.23;;;17.00;51.30;;;;;;5031776;28;20923;-57
2023/01/02 00:50:00;;;;;;;5.80;3.60;;;17.10;51.10;;;;;;5031826;28;20431;-57
2023/01/02 00:52:25;;;;;;;5.70;3.50;;;17.10;50.90;;;;;;5031318;28;20424;-57
2023/01/02 00:54:51;;;;;;;3.60;3.00;;;17.00;51.20;;;;;;5031702;28;20270;-58
2023/01/02 00:57:16;;;;;;;4.10;3.50;;;17.00;51.10;;;;;;5031578;28;20212;-57
2023/01/02 00:59:42;;;;;;;3.87;3.40;;;16.90;51.20;;;;;;5031804;28;20653;-57
2023/01/02 01:02:08;;;;;;;4.10;3.70;;;16.60;52.00;;;;;;5031142;28;20197;-57
2023/01/02 01:04:37;;;;;;;3.80;3.50;;;16.70;52.20;;;;;;5031372;28;20235;-58
2023/01/02 01:07:03;;;;;;;5.80;4.27;;;16.80;52.00;;;;;;5029260;28;20197;-58
2023/01/02 01:09:28;;;;;;;6.17;3.90;;;16.90;52.00;;;;;;5031595;28;20820;-57
2023/01/02 01:11:54;;;;;;;5.67;4.17;;;16.90;52.00;;;;;;5030911;28;20435;-57
2023/01/02 01:14:20;;;;;;;6.77;4.30;;;16.80;52.20;;;;;;5031599;28;20432;-57
2023/01/02 01:16:46;;;;;;;4.80;4.37;;;16.70;52.70;;;;;;5031299;28;20197;-57
2023/01/02 01:19:12;;;;;;;5.70;4.27;;;16.50;53.50;;;;;;5031523;28;20800;-57
2023/01/02 01:21:37;;;;;;;6.73;4.50;;;16.50;53.40;;;;;;5030646;28;20843;-57
2023/01/02 01:24:03;;;;;;;6.60;4.30;;;16.60;53.40;;;;;;5031214;28;20235;-57
2023/01/02 01:26:30;;;;;;;4.13;3.57;;;16.70;53.20;;;;;;5031096;28;20210;-57
2023/01/02 01:28:55;;;;;;;6.00;3.70;;;16.70;53.00;;;;;;5031139;28;20474;-57
2023/01/02 01:31:22;;;;;;;5.13;3.43;;;16.70;52.70;;;;;;5030570;28;20212;-57
2023/01/02 01:33:48;;;;;;;4.23;2.97;;;16.80;52.60;;;;;;5029427;28;20209;-58
2023/01/02 01:36:17;;;;;;;3.30;3.00;;;16.70;52.30;;;;;;5030926;28;20434;-58
2023/01/02 01:38:43;;;;;;;4.50;2.60;;;16.70;52.40;;;;;;5031129;28;20193;-58
2023/01/02 01:41:14;;;;;;;2.97;2.53;;;16.40;52.40;;;;;;5030960;28;20427;-57
2023/01/02 01:43:42;;;;;;;4.40;3.20;;;16.40;52.70;;;;;;5031095;28;20436;-57
2023/01/02 01:46:32;;;;;;;3.90;2.57;;;16.50;52.60;;;;;;5030900;28;20515;-57
2023/01/02 01:49:16;;;;;;;7.03;3.00;;;16.50;52.40;;;;;;5030936;28;20425;-57
2023/01/02 01:52:01;;;;;;;3.70;3.07;;;16.40;52.50;;;;;;5030749;28;20483;-57
2023/01/02 01:54:31;;;;;;;5.03;3.60;;;16.50;52.60;;;;;;5030878;28;20424;-57
2023/01/02 01:57:03;;;;;;;4.40;3.77;;;16.40;53.00;;;;;;5030833;28;20416;-58
2023/01/02 01:59:29;;;;;;;4.50;3.60;;;16.50;53.10;;;;;;5029148;28;20848;-57
2023/01/02 02:01:56;;;;;;;3.90;3.60;;;16.50;52.90;;;;;;5030341;28;20766;-57
2023/01/02 02:04:25;;;;;;;4.20;3.30;;;16.50;52.90;;;;;;5030635;28;20837;-57
2023/01/02 02:06:51;;;;;;;5.27;4.20;;;16.10;53.90;;;;;;5030440;28;20535;-57
2023/01/02 02:09:24;;;;;;;4.93;4.50;;;16.00;54.40;;;;;;5030771;28;20832;-57
2023/01/02 02:11:53;;;;;;;4.77;3.87;;;15.80;54.70;;;;;;5030181;28;20430;-57
2023/01/02 02:14:18;;;;;;;6.40;3.13;;;15.70;55.00;;;;;;5030781;28;20840;-57
2023/01/02 02:16:59;;;;;;;5.70;3.20;;;15.80;54.90;;;;;;5031025;28;20478;-57
2023/01/02 02:19:37;;;;;;;4.27;3.63;;;15.40;55.30;;;;;;5034679;28;20619;-57
2023/01/02 02:22:41;;;;;;;3.70;3.33;;;15.30;55.80;;;;;;5033907;28;21253;-57
2023/01/02 02:25:31;;;;;;;5.47;3.60;;;15.40;55.70;;;;;;5011389;28;20588;-57
2023/01/02 02:28:06;;;;;;;4.77;3.60;;;15.50;55.50;;;;;;5034486;28;20781;-57
2023/01/02 02:30:57;;;;;;;3.60;3.30;;;15.40;55.60;;;;;;5034391;28;20432;-57
2023/01/02 02:34:03;;;;;;;4.27;3.87;;;15.40;55.60;;;;;;5034369;28;20432;-57
2023/01/02 02:36:39;;;;;;;6.03;3.93;;;15.20;56.10;;;;;;5019049;28;20801;-57
2023/01/02 02:39:36;;;;;;;5.07;3.50;;;15.30;56.20;;;;;;5034447;28;20434;-57
2023/01/02 02:42:21;;;;;;;4.10;3.60;;;15.10;56.20;;;;;;5033887;28;20750;-57
2023/01/02 02:45:04;;;;;;;4.37;3.50;;;14.70;57.30;;;;;;5034016;28;20534;-57
2023/01/02 02:48:15;;;;;;;5.43;3.80;;;14.50;58.00;;;;;;5033957;28;20489;-57
2023/01/02 02:51:07;;;;;;;3.53;3.23;;;14.50;58.20;;;;;;5031619;28;20467;-57
2023/01/02 02:53:42;;;;;;;6.97;3.20;;;14.30;58.70;;;;;;5032599;28;20435;-57
2023/01/02 02:56:10;;;;;;;5.23;3.53;;;14.40;58.60;;;;;;5033802;28;20420;-57
2023/01/02 02:58:39;;;;;;;3.93;3.13;;;14.50;58.20;;;;;;5033892;28;20428;-57
2023/01/02 03:01:07;;;;;;;5.63;3.20;;;14.60;58.00;;;;;;5033602;28;20432;-57
2023/01/02 03:03:33;;;;;;;3.23;2.93;;;14.60;57.80;;;;;;5033638;28;20424;-57
2023/01/02 03:06:16;;;;;;;3.87;3.10;;;14.70;57.50;;;;;;5033629;28;20567;-57
2023/01/02 03:09:20;;;;;;;2.90;2.70;;;14.80;57.30;;;;;;5033662;28;20443;-57
2023/01/02 03:12:28;;;;;;;4.60;3.00;;;15.00;57.10;;;;;;5033156;28;20427;-57
2023/01/02 03:15:23;;;;;;;4.20;2.77;;;14.90;56.70;;;;;;5027739;28;21291;-57
2023/01/02 03:18:09;;;;;;;3.87;2.77;;;14.90;56.60;;;;;;5014749;28;20512;-57
2023/01/02 03:20:42;;;;;;;4.20;2.73;;;15.10;56.20;;;;;;5020349;28;20490;-57
2023/01/02 03:23:14;;;;;;;4.13;3.70;;;15.20;56.00;;;;;;5032858;28;20566;-57
2023/01/02 03:25:40;;;;;;;3.47;2.70;;;15.20;55.60;;;;;;5033513;28;20806;-57
2023/01/02 03:28:08;;;;;;;3.97;2.57;;;15.30;55.30;;;;;;5032914;28;20912;-57
2023/01/02 03:30:37;;;;;;;4.87;3.50;;;15.10;55.30;;;;;;5032784;28;20434;-57
2023/01/02 03:33:14;;;;;;;3.90;2.93;;;15.00;56.10;;;;;;5032725;28;20427;-57
2023/01/02 03:35:47;;;;;;;2.80;2.50;;;15.10;56.20;;;;;;5033128;28;20497;-57
2023/01/02 03:38:19;;;;;;;2.70;2.13;;;15.00;55.50;;;;;;5032790;28;20507;-57
2023/01/02 03:40:51;;;;;;;3.77;3.03;;;15.10;55.50;;;;;;5033044;28;20470;-57
2023/01/02 03:43:22;;;;;;;2.20;2.00;;;15.20;55.00;;;;;;5032957;28;20477;-57
2023/01/02 03:45:55;;;;;;;2.53;2.07;;;15.20;54.90;;;;;;5031187;28;20527;-57
2023/01/02 03:49:00;;;;;;;2.90;2.30;;;15.20;54.90;;;;;;5032847;28;20507;-57
2023/01/02 03:51:26;;;;;;;4.43;2.50;;;15.30;54.70;;;;;;5011429;28;20958;-57
2023/01/02 03:53:52;;;;;;;5.70;2.77;;;15.40;54.60;;;;;;5032876;28;20420;-58
2023/01/02 03:56:33;;;;;;;3.07;2.50;;;15.50;54.40;;;;;;5032666;28;20279;-57
2023/01/02 03:59:04;;;;;;;5.90;2.77;;;15.60;54.30;;;;;;5032561;28;20431;-57
2023/01/02 04:01:47;;;;;;;4.87;2.73;;;15.60;54.20;;;;;;5032504;28;20784;-57
2023/01/02 04:04:24;;;;;;;6.80;3.23;;;15.70;54.40;;;;;;5032743;28;20483;-57
2023/01/02 04:06:55;;;;;;;4.77;3.03;;;15.50;54.80;;;;;;5032702;28;20427;-57
2023/01/02 04:09:25;;;;;;;3.30;2.63;;;15.60;54.90;;;;;;5032622;28;20516;-57
2023/01/02 04:11:56;;;;;;;11.70;2.97;;;15.20;55.10;;;;;;5030687;28;20482;-57
2023/01/02 04:14:30;;;;;;;3.80;2.87;;;15.20;55.80;;;;;;5032530;28;20870;-57
2023/01/02 04:16:59;;;;;;;6.83;3.67;;;15.30;55.60;;;;;;5032526;28;20515;-57
2023/01/02 04:19:31;;;;;;;4.00;2.70;;;15.30;55.30;;;;;;5032484;28;20432;-57
2023/01/02 04:22:02;;;;;;;5.33;2.67;;;15.30;55.20;;;;;;5031752;28;20513;-57
2023/01/02 04:24:32;;;;;;;6.20;2.53;;;15.40;54.90;;;;;;5031970;28;20482;-57
2023/01/02 04:27:11;;;;;;;4.67;3.33;;;15.40;54.50;;;;;;5031990;28;20794;-57
2023/01/02 04:29:36;;;;;;;2.47;2.27;;;15.50;54.30;;;;;;5032155;28;20459;-58
2023/01/02 04:32:11;;;;;;;3.10;2.40;;;15.50;54.10;;;;;;5031797;28;20451;-57
2023/01/02 04:34:39;;;;;;;4.63;2.80;;;15.30;54.30;;;;;;5031952;28;20204;-58
2023/01/02 04:37:04;;;;;;;2.70;2.30;;;15.20;54.80;;;;;;5032089;28;20522;-57
2023/01/02 04:39:32;;;;;;;2.60;2.40;;;15.10;54.90;;;;;;5030300;28;20827;-57
2023/01/02 04:41:57;;;;;;;3.00;2.40;;;15.20;55.00;;;;;;5030548;28;20192;-57
2023/01/02 04:44:23;;;;;;;9.20;3.00;;;15.20;54.70;;;;;;5031575;28;20475;-57
2023/01/02 04:46:48;;;;;;;3.93;2.60;;;15.30;54.50;;;;;;5031695;28;20193;-57
2023/01/02 04:49:14;;;;;;;5.73;2.90;;;15.10;54.80;;;;;;5046935;28;20749;-57
2023/01/02 04:51:39;;;;;;;5.83;2.97;;;15.00;55.50;;;;;;5051560;28;20188;-57
2023/01/02 04:54:05;;;;;;;6.20;2.57;;;15.00;55.60;;;;;;5051601;28;20192;-57
2023/01/02 04:56:30;;;;;;;3.30;2.80;;;15.00;55.60;;;;;;5051770;28;20199;-57
2023/01/02 04:58:56;;;;;;;3.33;2.23;;;14.80;56.00;;;;;;5051450;28;20192;-57
2023/01/02 05:01:21;;;;;;;4.00;2.80;;;14.50;56.70;;;;;;5051085;28;20652;-57
2023/01/02 05:03:51;;;;;;;3.70;2.73;;;14.50;56.70;;;;;;5050238;28;20200;-57
2023/01/02 05:06:17;;;;;;;3.50;2.40;;;14.50;56.70;;;;;;5051349;28;20193;-57
2023/01/02 05:08:42;;;;;;;3.57;2.30;;;14.40;57.00;;;;;;5051376;28;20438;-57
2023/01/02 05:11:14;;;;;;;2.63;1.90;;;14.30;57.10;;;;;;5051057;28;20263;-57
2023/01/02 05:13:40;;;;;;;6.83;2.50;;;14.30;57.20;;;;;;5051454;28;20199;-57
2023/01/02 05:16:07;;;;;;;2.83;2.60;;;14.30;57.30;;;;;;5051413;28;21354;-57
2023/01/02 05:18:33;;;;;;;6.70;3.53;;;14.30;57.30;;;;;;5047716;28;20765;-57
2023/01/02 05:21:00;;;;;;;3.20;2.90;;;14.40;57.10;;;;;;5030750;28;20497;-57
2023/01/02 05:26:10;;;;;;;2.73;2.43;;;14.40;56.80;;;;;;5031251;28;20821;-57
2023/01/02 05:28:36;;;;;;;3.40;3.07;;;14.30;57.40;;;;;;5030919;28;20915;-57
2023/01/02 05:31:01;;;;;;;3.77;2.37;;;14.40;57.10;;;;;;5029226;28;20423;-57
2023/01/02 05:33:27;;;;;;;2.50;2.30;;;14.50;56.90;;;;;;5031163;28;20197;-57
2023/01/02 05:35:53;;;;;;;2.87;1.93;;;14.50;56.80;;;;;;5031161;28;20704;-57
2023/01/02 05:38:18;;;;;;;5.47;2.43;;;14.60;56.60;;;;;;5030791;28;20185;-57
2023/01/02 05:40:44;;;;;;;2.93;2.40;;;14.70;56.40;;;;;;5030600;28;20277;-57
2023/01/02 05:43:09;;;;;;;10.00;2.77;;;14.50;56.40;;;;;;5031017;28;20599;-57
2023/01/02 05:45:35;;;;;;;3.30;2.30;;;14.70;56.60;;;;;;5030757;28;20225;-57
2023/01/02 05:48:00;;;;;;;2.40;2.20;;;14.80;56.20;;;;;;5030861;28;20181;-57
2023/01/02 05:50:26;;;;;;;3.20;2.60;;;14.80;55.70;;;;;;5031152;28;20290;-57
2023/01/02 05:52:51;;;;;;;2.30;2.10;;;14.90;55.50;;;;;;5032939;28;20696;-58
2023/01/02 05:55:17;;;;;;;3.60;1.70;;;14.90;55.40;;;;;;5035076;28;20200;-57
2023/01/02 05:57:42;;;;;;;4.20;2.37;;;15.00;55.40;;;;;;5033464;28;20193;-57
2023/01/02 06:00:09;;;;;;;4.30;2.30;;;14.90;55.50;;;;;;5035001;28;20685;-57
2023/01/02 06:02:34;;;;;;;3.37;2.50;;;14.90;55.20;;;;;;5034354;28;20189;-57
2023/01/02 06:05:00;;;;;;;2.67;1.77;;;15.00;55.00;;;;;;5034779;28;21022;-58
2023/01/02 06:07:25;;;;;;;3.10;2.17;;;14.90;55.10;;;;;;5034787;28;20906;-57
2023/01/02 06:09:51;;;;;;;4.83;2.30;;;15.00;54.90;;;;;;5034989;28;20197;-57
2023/01/02 06:12:16;;;;;;;4.73;2.40;;;15.00;54.50;;;;;;5034228;28;20658;-57
2023/01/02 06:14:42;;;;;;;4.60;2.90;;;15.10;54.50;;;;;;5034761;28;20574;-57
2023/01/02 06:17:07;;;;;;;5.97;4.03;;;15.10;54.30;;;;;;5034552;28;20232;-57
2023/01/02 06:19:33;;;;;;;5.97;4.07;;;15.10;54.40;;;;;;5034468;28;20201;-57
2023/01/02 06:21:59;;;;;;;10.20;2.90;;;15.10;54.40;;;;;;5034002;28;20234;-57
2023/01/02 06:24:24;;;;;;;5.27;2.70;;;15.10;54.30;;;;;;5032855;28;20668;-57
2023/01/02 06:26:50;;;;;;;4.10;3.70;;;15.20;54.00;;;;;;5034326;28;20201;-57
2023/01/02 06:29:15;;;;;;;4.50;2.97;;;15.40;54.40;;;;;;5034509;28;20197;-57
2023/01/02 06:31:41;;;;;;;2.53;1.93;;;15.40;53.40;;;;;;5034138;28;20223;-57
2023/01/02 06:34:09;;;;;;;2.60;1.93;;;15.40;53.40;;;;;;5034344;28;20209;-57
2023/01/02 06:36:34;;;;;;;2.60;1.63;;;15.50;53.30;;;;;;5034214;28;20201;-58
2023/01/02 06:39:00;;;;;;;2.20;1.93;;;15.50;53.10;;;;;;5034225;28;20486;-57
2023/01/02 06:41:25;;;;;;;2.23;1.80;;;15.50;53.00;;;;;;5033789;28;20190;-57
2023/01/02 06:43:51;;;;;;;3.60;2.00;;;15.50;53.00;;;;;;5034067;28;20255;-57
2023/01/02 06:46:18;;;;;;;5.00;1.80;;;15.50;53.00;;;;;;5034126;28;20193;-57
2023/01/02 06:48:44;;;;;;;2.80;1.87;;;15.50;52.70;;;;;;5034062;28;20571;-57
2023/01/02 06:51:16;;;;;;;3.87;2.00;;;15.40;52.80;;;;;;5032639;28;20424;-58
2023/01/02 06:53:43;;;;;;;3.23;2.90;;;15.50;52.70;;;;;;5034070;28;20417;-57
2023/01/02 06:56:09;;;;;;;3.20;2.90;;;15.60;52.60;;;;;;5034175;28;20424;-58
2023/01/02 06:58:37;;;;;;;2.97;2.27;;;15.70;52.50;;;;;;5033941;28;20459;-58
2023/01/02 07:01:20;;;;;;;2.30;2.13;;;15.70;52.00;;;;;;5033446;28;20459;-57
2023/01/02 07:03:47;;;;;;;3.20;1.90;;;15.70;51.70;;;;;;5032433;28;20501;-57
2023/01/02 07:06:15;;;;;;;2.20;1.97;;;15.70;51.60;;;;;;5033902;28;20823;-57
2023/01/02 07:08:42;;;;;;;2.30;2.10;;;15.70;51.70;;;;;;5033732;28;20450;-57
2023/01/02 07:11:22;;;;;;;2.90;2.10;;;15.70;51.80;;;;;;5033135;28;20448;-57
2023/01/02 07:13:50;;;;;;;4.63;2.90;;;15.70;51.90;;;;;;5033523;28;20442;-57
2023/01/02 07:16:17;;;;;;;3.07;2.43;;;15.70;52.20;;;;;;5032556;28;20519;-57
2023/01/02 07:18:42;;;;;;;2.63;2.17;;;15.70;52.10;;;;;;5033012;28;20504;-57
2023/01/02 07:21:09;;;;;;;7.27;2.40;;;15.70;51.90;;;;;;5033142;28;20871;-57
2023/01/02 07:23:35;;;;;;;2.13;1.90;;;15.60;51.60;;;;;;5032956;28;20312;-57
2023/01/02 07:26:02;;;;;;;2.47;2.27;;;15.70;51.80;;;;;;5033182;28;20594;-57
2023/01/02 07:28:29;;;;;;;2.37;2.17;;;15.60;51.80;;;;;;5033065;28;20197;-57
2023/01/02 07:30:59;;;;;;;2.80;2.00;;;15.40;52.10;;;;;;5032840;28;20432;-57
2023/01/02 07:33:26;;;;;;;2.17;1.97;;;15.60;52.20;;;;;;5033056;28;20424;-57
2023/01/02 07:36:00;;;;;;;2.70;2.03;;;16.00;52.00;;;;;;5033047;28;20431;-57
2023/01/02 07:38:25;;;;;;;2.60;2.40;;;16.40;51.10;;;;;;5033211;28;20439;-57
2023/01/02 07:40:51;;;;;;;3.57;2.50;;;17.00;50.00;;;;;;5032642;28;20432;-57
2023/01/02 07:43:17;;;;;;;4.03;2.43;;;17.50;48.30;;;;;;5031357;28;20193;-57
2023/01/02 07:45:42;;;;;;;4.83;2.43;;;18.00;47.80;;;;;;5032917;28;21006;-57
2023/01/02 07:48:08;;;;;;;7.53;2.30;;;18.10;47.10;;;;;;5033010;28;20197;-58
2023/01/02 07:50:34;;;;;;;5.00;2.63;;;18.00;46.80;;;;;;5032366;28;20221;-58
2023/01/02 07:52:59;;;;;;;2.93;2.73;;;17.70;47.70;;;;;;5033008;28;20235;-58
2023/01/02 07:55:25;;;;;;;3.50;2.70;;;17.30;48.30;;;;;;5032892;28;20554;-58
2023/01/02 07:57:50;;;;;;;5.03;2.90;;;17.20;49.00;;;;;;5032922;28;20197;-57
2023/01/02 08:00:17;;;;;;;7.40;3.53;;;16.90;49.50;;;;;;5032908;28;20197;-57
2023/01/02 08:02:43;;;;;;;5.27;3.77;;;16.50;50.60;;;;;;5032484;28;20200;-57
2023/01/02 08:05:08;;;;;;;3.40;3.10;;;16.00;51.90;;;;;;5032522;28;20487;-57
2023/01/02 08:07:34;;;;;;;2.83;2.37;;;15.90;51.80;;;;;;5032619;28;20203;-57
2023/01/02 08:09:59;;;;;;;3.40;2.70;;;15.90;51.50;;;;;;5031044;28;20197;-57
2023/01/02 08:12:26;;;;;;;2.70;2.50;;;16.00;51.50;;;;;;5032267;28;20205;-57
2023/01/02 08:14:52;;;;;;;4.97;2.47;;;16.00;51.70;;;;;;5032443;28;20619;-57
2023/01/02 08:17:18;;;;;;;8.90;2.90;;;15.80;51.90;;;;;;5032223;28;20436;-57
2023/01/02 08:19:43;;;;;;;6.00;2.60;;;15.80;52.40;;;;;;5032343;28;20185;-57
2023/01/02 08:22:09;;;;;;;4.63;2.70;;;15.80;52.50;;;;;;5032057;28;20247;-57
2023/01/02 08:24:34;;;;;;;3.00;2.70;;;15.80;52.40;;;;;;5032236;28;20234;-57
2023/01/02 08:27:00;;;;;;;4.87;3.47;;;15.80;52.40;;;;;;5032332;28;20205;-57
2023/01/02 08:29:26;;;;;;;3.17;2.87;;;15.90;52.40;;;;;;5032152;28;20255;-57
2023/01/02 08:31:51;;;;;;;4.27;2.40;;;15.50;52.90;;;;;;5031641;28;20273;-57
2023/01/02 08:34:17;;;;;;;3.63;2.60;;;15.40;53.40;;;;;;5032181;28;20200;-57
2023/01/02 08:36:43;;;;;;;5.60;3.20;;;15.40;53.30;;;;;;5029313;28;20653;-57
2023/01/02 08:39:09;;;;;;;3.27;2.70;;;15.40;53.50;;;;;;5032178;28;20669;-57
2023/01/02 08:41:37;;;;;;;3.50;3.00;;;15.40;53.80;;;;;;5031497;28;20452;-57
2023/01/02 08:44:03;;;;;;;3.03;2.73;;;15.40;53.50;;;;;;5031910;28;20972;-58
2023/01/02 08:46:34;;;;;;;4.27;2.30;;;15.50;53.50;;;;;;5031773;28;20512;-58
2023/01/02 08:49:00;;;;;;;3.50;2.30;;;15.40;53.70;;;;;;5031889;28;20424;-57
2023/01/02 08:51:25;;;;;;;3.53;2.47;;;15.40;53.50;;;;;;5031602;28;20456;-57
2023/01/02 08:53:51;;;;;;;5.57;2.53;;;15.50;53.20;;;;;;5031763;28;20436;-57
2023/01/02 08:56:23;;;;;;;3.33;2.03;;;15.60;53.00;;;;;;5031879;28;20193;-57
2023/01/02 08:59:00;;;;;;;2.60;2.33;;;15.80;52.60;;;;;;5031497;28;20451;-57
2023/01/02 09:01:28;;;;;;;4.23;2.37;;;15.90;52.10;;;;;;5031286;28;20511;-58
2023/01/02 09:03:54;;;;;;;5.27;2.87;;;16.00;51.70;;;;;;5029844;28;20463;-57
2023/01/02 09:06:22;;;;;;;3.17;2.40;;;16.10;51.40;;;;;;5031660;28;20494;-57
2023/01/02 09:08:48;;;;;;;2.53;2.33;;;16.20;51.40;;;;;;5031339;28;20478;-57
2023/01/02 09:11:17;;;;;;;3.27;2.50;;;16.40;51.60;;;;;;5031068;28;20432;-58
2023/01/02 09:13:43;;;;;;;4.33;2.63;;;16.50;51.60;;;;;;5031416;28;20490;-57
2023/01/02 09:16:10;;;;;;;3.30;2.83;;;16.60;51.30;;;;;;5031870;28;20928;-57
2023/01/02 09:18:37;;;;;;;8.30;5.13;;;16.60;52.00;;;;;;5031593;28;20473;-58
2023/01/02 09:21:03;;;;;;;5.37;4.87;;;16.60;53.10;;;;;;5030881;28;20974;-57
2023/01/02 09:23:30;;;;;;;5.23;4.73;;;16.60;53.40;;;;;;5031036;28;20464;-57
2023/01/02 09:26:04;;;;;;;5.80;4.77;;;16.70;53.20;;;;;;5031125;28;20578;-57
2023/01/02 09:28:32;;;;;;;5.83;4.00;;;16.80;52.80;;;;;;5030641;28;20424;-57
2023/01/02 09:30:57;;;;;;;4.43;3.33;;;16.70;52.50;;;;;;5029506;28;20420;-57
2023/01/02 09:33:23;;;;;;;3.07;2.60;;;16.80;52.60;;;;;;5030929;28;20473;-58
2023/01/02 09:35:49;;;;;;;3.73;3.40;;;16.70;50.60;;;;;;5030911;28;20656;-57
2023/01/02 09:38:15;;;;;;;5.33;3.07;;;16.80;49.70;;;;;;5030941;28;20319;-58
2023/01/02 09:40:46;;;;;;;4.90;2.90;;;16.90;50.60;;;;;;5030703;28;20551;-57
2023/01/02 09:43:13;;;;;;;6.43;3.10;;;17.00;50.60;;;;;;5023191;28;20254;-56
2023/01/02 09:45:42;;;;;;;7.43;2.67;;;17.10;50.40;;;;;;5021015;28;20964;-58
2023/01/02 09:48:15;;;;;;;6.23;2.73;;;17.30;49.00;;;;;;5020720;28;20456;-56
2023/01/02 09:50:43;;;;;;;4.70;2.53;;;17.40;47.90;;;;;;5014916;28;20443;-57
2023/01/02 09:53:10;;;;;;;3.83;2.63;;;17.50;47.50;;;;;;5013896;28;20805;-57
2023/01/02 09:55:57;;;;;;;5.83;2.57;;;17.40;46.20;;;;;;5017736;28;20441;-56
2023/01/02 09:58:49;;;;;;;2.70;2.50;;;17.40;45.80;;;;;;5031435;28;20551;-57
2023/01/02 10:01:55;;;;;;;5.20;2.90;;;17.10;46.30;;;;;;5028990;28;20455;-57
2023/01/02 10:04:58;;;;;;;5.17;2.97;;;17.20;46.30;;;;;;5025351;28;20529;-57
2023/01/02 10:07:49;;;;;;;5.73;3.43;;;17.60;46.90;;;;;;5028169;28;20451;-57
2023/01/02 10:10:21;;;;;;;6.10;3.23;;;17.70;46.60;;;;;;5017446;28;20520;-57
2023/01/02 10:12:54;;;;;;;6.07;3.37;;;17.90;46.80;;;;;;5026179;28;20797;-57
2023/01/02 10:15:25;;;;;;;6.70;4.13;;;18.10;47.10;;;;;;5024410;28;20797;-57
2023/01/02 10:17:56;;;;;;;5.40;3.70;;;18.20;46.70;;;;;;5023291;28;21028;-57
2023/01/02 10:20:26;;;;;;;5.23;3.30;;;18.20;46.70;;;;;;5029985;28;20891;-57
2023/01/02 10:23:16;;;;;;;5.90;3.97;;;18.30;47.40;;;;;;5025917;28;20505;-57
2023/01/02 10:25:43;;;;;;;6.47;3.87;;;18.50;47.40;;;;;;5030810;28;20483;-57
2023/01/02 10:28:21;;;;;;;5.20;3.00;;;18.70;46.90;;;;;;5023056;28;20451;-57
2023/01/02 10:30:53;;;;;;;4.80;2.97;;;18.90;45.90;;;;;;5026847;28;20491;-57
2023/01/02 10:33:29;;;;;;;5.10;3.03;;;19.00;45.70;;;;;;5022854;28;20468;-57
2023/01/02 10:36:00;;;;;;;5.40;3.30;;;19.20;44.50;;;;;;5011996;28;21039;-57
2023/01/02 10:38:34;;;;;;;7.53;3.63;;;19.40;43.40;;;;;;5020747;28;20459;-57
2023/01/02 10:41:00;;;;;;;4.10;3.20;;;19.60;42.40;;;;;;5019329;28;20445;-57
2023/01/02 10:43:25;;;;;;;4.40;3.00;;;19.70;42.20;;;;;;5027964;28;20502;-58
2023/01/02 10:45:51;;;;;;;5.27;2.50;;;19.70;41.80;;;;;;5030115;28;20240;-57
2023/01/02 10:48:19;;;;;;;5.57;2.70;;;19.70;42.30;;;;;;5025967;28;20228;-57
2023/01/02 10:50:50;;;;;;;8.17;2.30;;;19.90;42.40;;;;;;5015047;28;20613;-57
2023/01/02 10:53:27;;;;;;;8.60;2.13;;;20.00;41.20;;;;;;5021208;28;20432;-57
2023/01/02 10:55:53;;;;;;;3.40;1.80;;;20.00;39.60;;;;;;5019119;28;20452;-57
2023/01/02 10:58:21;;;;;;;5.40;2.10;;;20.00;39.50;;;;;;5021444;28;20439;-57
2023/01/02 11:00:49;;;;;;;4.07;1.60;;;20.20;39.30;;;;;;5027513;28;20805;-57
2023/01/02 11:03:24;;;;;;;4.30;2.10;;;20.30;38.80;;;;;;5022489;28;20441;-57
2023/01/02 11:05:54;;;;;;;3.20;2.23;;;20.40;38.30;;;;;;5031221;28;20482;-57
2023/01/02 11:08:32;;;;;;;3.93;2.33;;;20.70;37.50;;;;;;5036766;28;20444;-57
2023/01/02 11:11:00;;;;;;;4.60;1.90;;;20.90;37.60;;;;;;5028887;28;20451;-57
2023/01/02 11:13:32;;;;;;;6.63;2.73;;;20.90;37.00;;;;;;5024708;28;20826;-57
2023/01/02 11:16:03;;;;;;;4.80;1.80;;;20.90;37.10;;;;;;5023065;28;20799;-57
2023/01/02 11:18:31;;;;;;;8.93;2.10;;;21.20;37.20;;;;;;5024438;28;20887;-57
2023/01/02 11:21:03;;;;;;;7.17;2.20;;;21.40;37.20;;;;;;5028409;28;20522;-57
2023/01/02 11:23:38;;;;;;;6.60;2.47;;;21.60;36.30;;;;;;5023367;28;20479;-57
2023/01/02 11:26:09;;;;;;;5.70;2.83;;;21.40;36.20;;;;;;5022284;28;20533;-57
2023/01/02 11:28:38;;;;;;;4.63;2.00;;;21.30;36.30;;;;;;5029074;28;20975;-57
2023/01/02 11:31:10;;;;;;;3.07;1.87;;;21.40;36.40;;;;;;5014772;28;20479;-57
2023/01/02 11:33:36;;;;;;;6.40;1.90;;;21.30;36.60;;;;;;5040320;28;20935;-57
2023/01/02 11:36:18;;;;;;;5.23;2.50;;;21.30;36.80;;;;;;5021129;28;21523;-57
2023/01/02 11:38:53;;;;;;;4.80;2.43;;;21.40;36.60;;;;;;5021091;28;20841;-57
2023/01/02 11:44:33;;;;;;;4.70;2.20;;;21.50;36.40;;;;;;5020879;28;20499;-57
2023/01/02 11:47:00;;;;;;;6.50;2.60;;;21.40;36.70;;;;;;5031553;28;20431;-57
2023/01/02 11:49:32;;;;;;;8.97;2.53;;;21.60;36.70;;;;;;5023622;28;20436;-57
2023/01/02 11:52:01;;;;;;;4.53;2.27;;;21.60;37.50;;;;;;5029772;28;20455;-58
2023/01/02 11:54:37;;;;;;;4.63;2.40;;;21.50;36.60;;;;;;5026114;28;20452;-57
2023/01/02 11:57:04;;;;;;;8.77;3.13;;;21.70;37.40;;;;;;5031248;28;20471;-57
2023/01/02 11:59:39;;;;;;;4.07;2.40;;;21.60;37.40;;;;;;5027485;28;21038;-57
2023/01/02 12:02:35;;;;;;;10.20;2.40;;;21.60;37.90;;;;;;5028005;28;20805;-57
2023/01/02 12:05:01;;;;;;;3.77;2.80;;;21.80;38.10;;;;;;5027617;28;20909;-57
2023/01/02 12:07:44;;;;;;;5.73;2.20;;;21.80;38.30;;;;;;5027911;28;20954;-57
2023/01/02 12:10:18;;;;;;;7.03;2.37;;;21.90;38.20;;;;;;5025464;28;20456;-57
2023/01/02 12:12:53;;;;;;;7.87;2.63;;;21.90;38.60;;;;;;5027483;28;20443;-57
2023/01/02 12:15:49;;;;;;;4.70;1.90;;;22.00;38.80;;;;;;5019416;28;20804;-57
2023/01/02 12:18:18;;;;;;;8.90;3.73;;;21.90;38.60;;;;;;5025837;28;20447;-57
2023/01/02 12:21:23;;;;;;;8.20;2.57;;;21.80;38.70;;;;;;5032103;28;20436;-57
2023/01/02 12:24:04;;;;;;;6.20;3.00;;;21.80;38.70;;;;;;4998942;28;20492;-57
2023/01/02 12:26:37;;;;;;;10.10;2.87;;;21.80;38.70;;;;;;5023763;28;20536;-57
2023/01/02 12:29:11;;;;;;;4.83;2.10;;;21.70;38.90;;;;;;5016131;28;20498;-57
2023/01/02 12:31:40;;;;;;;4.73;2.70;;;21.70;39.30;;;;;;5020650;28;20444;-57
2023/01/02 12:34:34;;;;;;;7.37;2.83;;;21.70;39.10;;;;;;5020565;28;20527;-57
2023/01/02 12:37:27;;;;;;;4.27;2.47;;;21.70;38.80;;;;;;5011871;28;20987;-57
2023/01/02 12:40:05;;;;;;;4.90;2.30;;;21.70;39.20;;;;;;5020597;28;20490;-57
2023/01/02 12:42:39;;;;;;;5.30;2.70;;;21.60;39.00;;;;;;5024951;28;20440;-57
2023/01/02 12:45:20;;;;;;;5.60;2.20;;;21.60;38.70;;;;;;5025721;28;20540;-57
2023/01/02 12:48:07;;;;;;;4.57;2.03;;;21.50;38.40;;;;;;5027261;28;20946;-56
2023/01/02 12:50:48;;;;;;;3.60;2.33;;;21.40;38.90;;;;;;5024415;28;20447;-57
2023/01/02 12:53:35;;;;;;;5.13;2.30;;;21.40;39.00;;;;;;5026550;28;20466;-57
2023/01/02 12:56:07;;;;;;;5.63;2.40;;;21.30;38.90;;;;;;5027185;28;20442;-57
2023/01/02 12:58:45;;;;;;;6.57;2.97;;;21.40;39.00;;;;;;5018865;28;20476;-57
2023/01/02 13:01:37;;;;;;;8.13;3.17;;;21.20;39.30;;;;;;5014392;28;20539;-57
2023/01/02 13:04:08;;;;;;;8.30;2.60;;;21.10;39.40;;;;;;5022473;28;20815;-57
2023/01/02 13:06:55;;;;;;;4.60;2.73;;;21.00;39.40;;;;;;5027850;28;20444;-57
2023/01/02 13:09:40;;;;;;;6.53;3.40;;;21.00;39.20;;;;;;5027650;28;20800;-57
2023/01/02 13:12:13;;;;;;;3.63;2.43;;;21.00;39.10;;;;;;5022284;28;20822;-57